Impacts TAF Board
For situational awareness. Not to be used for flight planning purposes.
IDs:

KLAS - Las Vegas/McCarran I, NV, US

Issued at 0229 UTC 26 Apr 2019
Updated at 0423 UTC 26 Apr 2019
Potential Impact None Slight Moderate High
Time<<26/17Z 26/18Z 26/19Z 26/20Z 26/21Z 26/22Z 26/23Z 27/00Z 27/01Z 27/02Z 27/03Z 27/04Z 27/05Z>>
Type PRVL PRVL PRVL PRVL PRVL PRVL PRVL PRVL PRVL PRVL PRVL PRVL PRVL
VIS >6 >6 >6 >6 >6 >6 >6 >6 >6 >6 >6 >6 >6
CIG -- -- -- -- -- -- -- -- -- -- -- -- --
Cover FEW FEW FEW FEW FEW FEW FEW FEW FEW FEW FEW FEW FEW
FltCat VFR VFR VFR VFR VFR VFR VFR VFR VFR VFR VFR VFR VFR
WX -- -- -- -- -- -- -- -- -- -- -- -- --
WDir 200 200 210 210 210 210 210 210 210 210 210 210 210
WSpd 11 11 14 14 14 14 14 14 14 14 14 14 14
WGst -- -- 22 22 22 22 22 22 22 22 22 22 22
Raw TAF
KLAS 260229Z 2602/2706 20011KT P6SM FEW110
  FM261900 21014G22KT P6SM FEW110


METAR Board
Radar Display
Forecast Discussion
For situational awareness. Not to be used for flight planning purposes.